sensor_id;sensor_type;location;lat;lon;timestamp;P1;durP1;ratioP1;P2;durP2;ratioP2
63012;SDS011;62113;45.624;11.700;2023-12-22T00:01:40;56.90;;;28.60;;
63012;SDS011;62113;45.624;11.700;2023-12-22T00:04:06;48.17;;;26.23;;
63012;SDS011;62113;45.624;11.700;2023-12-22T00:06:32;50.25;;;26.75;;
63012;SDS011;62113;45.624;11.700;2023-12-22T00:08:58;45.67;;;25.02;;
63012;SDS011;62113;45.624;11.700;2023-12-22T00:11:23;52.55;;;26.38;;
63012;SDS011;62113;45.624;11.700;2023-12-22T00:13:49;51.10;;;25.67;;
63012;SDS011;62113;45.624;11.700;2023-12-22T00:16:14;50.35;;;25.02;;
63012;SDS011;62113;45.624;11.700;2023-12-22T00:18:40;51.67;;;26.70;;
63012;SDS011;62113;45.624;11.700;2023-12-22T00:21:09;52.28;;;26.48;;
63012;SDS011;62113;45.624;11.700;2023-12-22T00:23:37;52.45;;;27.77;;
63012;SDS011;62113;45.624;11.700;2023-12-22T00:26:04;51.92;;;28.20;;
63012;SDS011;62113;45.624;11.700;2023-12-22T00:30:57;43.72;;;23.63;;
63012;SDS011;62113;45.624;11.700;2023-12-22T00:33:23;44.90;;;23.30;;
63012;SDS011;62113;45.624;11.700;2023-12-22T00:35:49;51.33;;;23.55;;
63012;SDS011;62113;45.624;11.700;2023-12-22T00:38:15;46.88;;;24.23;;
63012;SDS011;62113;45.624;11.700;2023-12-22T00:40:40;42.42;;;22.02;;
63012;SDS011;62113;45.624;11.700;2023-12-22T00:43:06;48.03;;;23.08;;
63012;SDS011;62113;45.624;11.700;2023-12-22T00:45:31;40.88;;;21.58;;
63012;SDS011;62113;45.624;11.700;2023-12-22T00:47:57;39.33;;;21.33;;
63012;SDS011;62113;45.624;11.700;2023-12-22T00:50:23;48.35;;;21.85;;
63012;SDS011;62113;45.624;11.700;2023-12-22T00:52:48;44.78;;;23.58;;
63012;SDS011;62113;45.624;11.700;2023-12-22T00:55:14;54.28;;;22.17;;
63012;SDS011;62113;45.624;11.700;2023-12-22T00:57:39;49.17;;;23.58;;
63012;SDS011;62113;45.624;11.700;2023-12-22T01:00:06;40.38;;;22.23;;
63012;SDS011;62113;45.624;11.700;2023-12-22T01:02:35;48.53;;;21.52;;
63012;SDS011;62113;45.624;11.700;2023-12-22T01:05:01;35.58;;;20.00;;
63012;SDS011;62113;45.624;11.700;2023-12-22T01:07:26;37.67;;;20.77;;
63012;SDS011;62113;45.624;11.700;2023-12-22T01:09:52;39.08;;;20.35;;
63012;SDS011;62113;45.624;11.700;2023-12-22T01:12:18;36.25;;;19.88;;
63012;SDS011;62113;45.624;11.700;2023-12-22T01:14:44;41.55;;;21.95;;
63012;SDS011;62113;45.624;11.700;2023-12-22T01:17:10;40.13;;;20.40;;
63012;SDS011;62113;45.624;11.700;2023-12-22T01:19:36;38.10;;;18.98;;
63012;SDS011;62113;45.624;11.700;2023-12-22T01:22:01;35.65;;;20.52;;
63012;SDS011;62113;45.624;11.700;2023-12-22T01:24:27;40.17;;;20.15;;
63012;SDS011;62113;45.624;11.700;2023-12-22T01:26:53;40.15;;;20.48;;
63012;SDS011;62113;45.624;11.700;2023-12-22T01:29:18;40.83;;;21.50;;
63012;SDS011;62113;45.624;11.700;2023-12-22T01:31:44;40.13;;;19.65;;
63012;SDS011;62113;45.624;11.700;2023-12-22T01:34:10;36.33;;;19.98;;
63012;SDS011;62113;45.624;11.700;2023-12-22T01:36:35;42.35;;;21.30;;
63012;SDS011;62113;45.624;11.700;2023-12-22T01:39:01;40.17;;;21.25;;
63012;SDS011;62113;45.624;11.700;2023-12-22T01:41:27;36.50;;;19.80;;
63012;SDS011;62113;45.624;11.700;2023-12-22T01:43:53;42.10;;;21.17;;
63012;SDS011;62113;45.624;11.700;2023-12-22T01:46:18;41.17;;;18.80;;
63012;SDS011;62113;45.624;11.700;2023-12-22T01:48:45;36.15;;;20.10;;
63012;SDS011;62113;45.624;11.700;2023-12-22T01:51:11;35.22;;;18.90;;
63012;SDS011;62113;45.624;11.700;2023-12-22T01:53:37;32.75;;;17.98;;
63012;SDS011;62113;45.624;11.700;2023-12-22T01:56:03;31.38;;;17.13;;
63012;SDS011;62113;45.624;11.700;2023-12-22T01:58:30;31.83;;;18.02;;
63012;SDS011;62113;45.624;11.700;2023-12-22T02:00:57;34.70;;;18.15;;
63012;SDS011;62113;45.624;11.700;2023-12-22T02:03:23;35.13;;;18.55;;
63012;SDS011;62113;45.624;11.700;2023-12-22T02:05:49;37.20;;;17.08;;
63012;SDS011;62113;45.624;11.700;2023-12-22T02:08:17;31.42;;;17.92;;
63012;SDS011;62113;45.624;11.700;2023-12-22T02:10:43;32.42;;;17.40;;
63012;SDS011;62113;45.624;11.700;2023-12-22T02:13:09;34.93;;;18.37;;
63012;SDS011;62113;45.624;11.700;2023-12-22T02:15:36;30.98;;;17.63;;
63012;SDS011;62113;45.624;11.700;2023-12-22T02:18:02;31.30;;;17.85;;
63012;SDS011;62113;45.624;11.700;2023-12-22T02:20:56;37.67;;;16.63;;
63012;SDS011;62113;45.624;11.700;2023-12-22T02:23:22;32.33;;;16.77;;
63012;SDS011;62113;45.624;11.700;2023-12-22T02:25:48;28.88;;;16.23;;
63012;SDS011;62113;45.624;11.700;2023-12-22T02:28:21;32.17;;;16.98;;
63012;SDS011;62113;45.624;11.700;2023-12-22T02:33:47;38.03;;;18.25;;
63012;SDS011;62113;45.624;11.700;2023-12-22T02:36:15;35.70;;;16.33;;
63012;SDS011;62113;45.624;11.700;2023-12-22T02:38:42;31.65;;;16.83;;
63012;SDS011;62113;45.624;11.700;2023-12-22T02:41:08;33.67;;;17.52;;
63012;SDS011;62113;45.624;11.700;2023-12-22T02:43:34;25.70;;;16.15;;
63012;SDS011;62113;45.624;11.700;2023-12-22T02:46:00;33.90;;;16.30;;
63012;SDS011;62113;45.624;11.700;2023-12-22T02:48:26;33.78;;;17.95;;
63012;SDS011;62113;45.624;11.700;2023-12-22T02:50:51;28.90;;;14.80;;
63012;SDS011;62113;45.624;11.700;2023-12-22T02:53:17;29.58;;;15.35;;
63012;SDS011;62113;45.624;11.700;2023-12-22T02:55:43;25.30;;;15.27;;
63012;SDS011;62113;45.624;11.700;2023-12-22T02:58:08;27.27;;;15.88;;
63012;SDS011;62113;45.624;11.700;2023-12-22T03:00:34;24.50;;;14.50;;
63012;SDS011;62113;45.624;11.700;2023-12-22T03:02:59;29.60;;;15.40;;
63012;SDS011;62113;45.624;11.700;2023-12-22T03:05:25;27.25;;;15.02;;
63012;SDS011;62113;45.624;11.700;2023-12-22T03:07:50;25.17;;;14.82;;
63012;SDS011;62113;45.624;11.700;2023-12-22T03:10:16;26.83;;;15.65;;
63012;SDS011;62113;45.624;11.700;2023-12-22T03:12:42;29.38;;;16.10;;
63012;SDS011;62113;45.624;11.700;2023-12-22T03:15:07;26.95;;;15.35;;
63012;SDS011;62113;45.624;11.700;2023-12-22T03:17:33;28.27;;;15.13;;
63012;SDS011;62113;45.624;11.700;2023-12-22T03:19:59;27.58;;;15.48;;
63012;SDS011;62113;45.624;11.700;2023-12-22T03:22:25;28.75;;;16.92;;
63012;SDS011;62113;45.624;11.700;2023-12-22T03:24:50;28.65;;;15.38;;
63012;SDS011;62113;45.624;11.700;2023-12-22T03:27:16;26.75;;;14.80;;
63012;SDS011;62113;45.624;11.700;2023-12-22T03:32:09;24.70;;;15.02;;
63012;SDS011;62113;45.624;11.700;2023-12-22T03:34:34;24.88;;;13.90;;
63012;SDS011;62113;45.624;11.700;2023-12-22T03:37:00;24.58;;;15.02;;
63012;SDS011;62113;45.624;11.700;2023-12-22T03:39:26;27.58;;;15.38;;
63012;SDS011;62113;45.624;11.700;2023-12-22T03:41:51;24.27;;;14.30;;
63012;SDS011;62113;45.624;11.700;2023-12-22T03:44:17;23.65;;;14.07;;
63012;SDS011;62113;45.624;11.700;2023-12-22T03:46:42;34.63;;;14.60;;
63012;SDS011;62113;45.624;11.700;2023-12-22T03:49:08;28.17;;;15.52;;
63012;SDS011;62113;45.624;11.700;2023-12-22T03:51:33;21.13;;;13.95;;
63012;SDS011;62113;45.624;11.700;2023-12-22T03:53:59;27.20;;;14.73;;
63012;SDS011;62113;45.624;11.700;2023-12-22T03:56:25;25.60;;;14.05;;
63012;SDS011;62113;45.624;11.700;2023-12-22T03:58:50;28.38;;;14.32;;
63012;SDS011;62113;45.624;11.700;2023-12-22T04:01:16;26.27;;;14.25;;
63012;SDS011;62113;45.624;11.700;2023-12-22T04:03:42;20.65;;;13.25;;
63012;SDS011;62113;45.624;11.700;2023-12-22T04:06:07;20.70;;;12.65;;
63012;SDS011;62113;45.624;11.700;2023-12-22T04:08:33;22.67;;;12.80;;
63012;SDS011;62113;45.624;11.700;2023-12-22T04:10:59;23.20;;;13.45;;
63012;SDS011;62113;45.624;11.700;2023-12-22T04:13:24;25.98;;;14.07;;
63012;SDS011;62113;45.624;11.700;2023-12-22T04:15:50;24.77;;;13.38;;
63012;SDS011;62113;45.624;11.700;2023-12-22T04:18:16;22.35;;;12.93;;
63012;SDS011;62113;45.624;11.700;2023-12-22T04:20:41;26.85;;;13.48;;
63012;SDS011;62113;45.624;11.700;2023-12-22T04:23:07;31.02;;;14.07;;
63012;SDS011;62113;45.624;11.700;2023-12-22T04:25:32;22.10;;;12.75;;
63012;SDS011;62113;45.624;11.700;2023-12-22T04:27:58;18.77;;;12.27;;
63012;SDS011;62113;45.624;11.700;2023-12-22T04:30:24;27.73;;;13.57;;
63012;SDS011;62113;45.624;11.700;2023-12-22T04:32:51;25.77;;;13.10;;
63012;SDS011;62113;45.624;11.700;2023-12-22T04:35:17;29.55;;;13.75;;
63012;SDS011;62113;45.624;11.700;2023-12-22T04:37:43;30.27;;;15.02;;
63012;SDS011;62113;45.624;11.700;2023-12-22T04:40:08;21.45;;;13.48;;
63012;SDS011;62113;45.624;11.700;2023-12-22T04:42:34;25.00;;;13.32;;
63012;SDS011;62113;45.624;11.700;2023-12-22T04:45:00;28.30;;;14.57;;
63012;SDS011;62113;45.624;11.700;2023-12-22T04:47:25;27.60;;;14.93;;
63012;SDS011;62113;45.624;11.700;2023-12-22T04:49:51;29.00;;;15.70;;
63012;SDS011;62113;45.624;11.700;2023-12-22T04:52:17;34.05;;;15.63;;
63012;SDS011;62113;45.624;11.700;2023-12-22T04:54:42;23.58;;;14.68;;
63012;SDS011;62113;45.624;11.700;2023-12-22T04:57:08;25.60;;;14.48;;
63012;SDS011;62113;45.624;11.700;2023-12-22T04:59:33;25.17;;;14.98;;
63012;SDS011;62113;45.624;11.700;2023-12-22T05:01:59;25.23;;;16.02;;
63012;SDS011;62113;45.624;11.700;2023-12-22T05:04:25;28.70;;;15.10;;
63012;SDS011;62113;45.624;11.700;2023-12-22T05:06:51;32.15;;;16.27;;
63012;SDS011;62113;45.624;11.700;2023-12-22T05:09:17;25.92;;;15.40;;
63012;SDS011;62113;45.624;11.700;2023-12-22T05:11:43;26.08;;;14.63;;
63012;SDS011;62113;45.624;11.700;2023-12-22T05:14:09;28.23;;;16.13;;
63012;SDS011;62113;45.624;11.700;2023-12-22T05:16:35;28.95;;;15.90;;
63012;SDS011;62113;45.624;11.700;2023-12-22T05:19:00;29.83;;;16.38;;
63012;SDS011;62113;45.624;11.700;2023-12-22T05:21:26;29.92;;;14.93;;
63012;SDS011;62113;45.624;11.700;2023-12-22T05:23:53;28.25;;;16.02;;
63012;SDS011;62113;45.624;11.700;2023-12-22T05:26:21;25.63;;;14.98;;
63012;SDS011;62113;45.624;11.700;2023-12-22T05:28:48;27.42;;;15.88;;
63012;SDS011;62113;45.624;11.700;2023-12-22T05:31:17;28.42;;;15.55;;
63012;SDS011;62113;45.624;11.700;2023-12-22T05:33:43;24.08;;;15.18;;
63012;SDS011;62113;45.624;11.700;2023-12-22T05:36:08;29.67;;;16.45;;
63012;SDS011;62113;45.624;11.700;2023-12-22T05:38:37;113.13;;;43.15;;
63012;SDS011;62113;45.624;11.700;2023-12-22T05:41:03;66.60;;;29.15;;
63012;SDS011;62113;45.624;11.700;2023-12-22T05:43:30;94.22;;;34.35;;
63012;SDS011;62113;45.624;11.700;2023-12-22T05:45:55;147.43;;;51.67;;
63012;SDS011;62113;45.624;11.700;2023-12-22T05:48:21;57.95;;;25.75;;
63012;SDS011;62113;45.624;11.700;2023-12-22T05:50:47;48.17;;;22.83;;
63012;SDS011;62113;45.624;11.700;2023-12-22T05:53:13;59.53;;;23.48;;
63012;SDS011;62113;45.624;11.700;2023-12-22T05:55:40;27.08;;;15.65;;
63012;SDS011;62113;45.624;11.700;2023-12-22T05:58:05;27.85;;;16.15;;
63012;SDS011;62113;45.624;11.700;2023-12-22T06:00:31;29.25;;;16.63;;
63012;SDS011;62113;45.624;11.700;2023-12-22T06:02:57;32.13;;;16.17;;
63012;SDS011;62113;45.624;11.700;2023-12-22T06:05:22;28.80;;;16.88;;
63012;SDS011;62113;45.624;11.700;2023-12-22T06:07:48;28.52;;;15.93;;
63012;SDS011;62113;45.624;11.700;2023-12-22T06:10:14;28.77;;;14.40;;
63012;SDS011;62113;45.624;11.700;2023-12-22T06:12:39;23.45;;;15.40;;
63012;SDS011;62113;45.624;11.700;2023-12-22T06:15:05;26.42;;;14.30;;
63012;SDS011;62113;45.624;11.700;2023-12-22T06:17:31;35.05;;;16.63;;
63012;SDS011;62113;45.624;11.700;2023-12-22T06:19:57;29.77;;;16.70;;
63012;SDS011;62113;45.624;11.700;2023-12-22T06:22:22;30.23;;;17.17;;
63012;SDS011;62113;45.624;11.700;2023-12-22T06:24:48;30.45;;;17.15;;
63012;SDS011;62113;45.624;11.700;2023-12-22T06:27:13;36.55;;;17.77;;
63012;SDS011;62113;45.624;11.700;2023-12-22T06:29:39;27.98;;;17.00;;
63012;SDS011;62113;45.624;11.700;2023-12-22T06:32:05;32.45;;;18.33;;
63012;SDS011;62113;45.624;11.700;2023-12-22T06:34:31;32.80;;;20.00;;
63012;SDS011;62113;45.624;11.700;2023-12-22T06:36:57;33.42;;;18.42;;
63012;SDS011;62113;45.624;11.700;2023-12-22T06:39:22;33.65;;;18.67;;
63012;SDS011;62113;45.624;11.700;2023-12-22T06:41:48;28.80;;;18.40;;
63012;SDS011;62113;45.624;11.700;2023-12-22T06:44:13;36.20;;;19.55;;
63012;SDS011;62113;45.624;11.700;2023-12-22T06:46:39;32.50;;;17.92;;
63012;SDS011;62113;45.624;11.700;2023-12-22T06:49:05;32.47;;;18.42;;
63012;SDS011;62113;45.624;11.700;2023-12-22T06:51:30;44.20;;;19.90;;
63012;SDS011;62113;45.624;11.700;2023-12-22T06:53:57;44.73;;;22.87;;
63012;SDS011;62113;45.624;11.700;2023-12-22T06:56:25;37.08;;;21.50;;
63012;SDS011;62113;45.624;11.700;2023-12-22T06:58:55;34.90;;;21.55;;
63012;SDS011;62113;45.624;11.700;2023-12-22T07:03:52;34.38;;;21.10;;
63012;SDS011;62113;45.624;11.700;2023-12-22T07:06:18;41.50;;;23.05;;
63012;SDS011;62113;45.624;11.700;2023-12-22T07:08:44;34.63;;;20.83;;
63012;SDS011;62113;45.624;11.700;2023-12-22T07:11:19;44.45;;;20.42;;
63012;SDS011;62113;45.624;11.700;2023-12-22T07:13:45;35.83;;;21.00;;
63012;SDS011;62113;45.624;11.700;2023-12-22T07:16:11;36.40;;;21.10;;
63012;SDS011;62113;45.624;11.700;2023-12-22T07:18:37;36.90;;;19.65;;
63012;SDS011;62113;45.624;11.700;2023-12-22T07:21:03;34.10;;;21.45;;
63012;SDS011;62113;45.624;11.700;2023-12-22T07:23:29;32.40;;;19.30;;
63012;SDS011;62113;45.624;11.700;2023-12-22T07:25:54;37.47;;;21.65;;
63012;SDS011;62113;45.624;11.700;2023-12-22T07:28:20;38.35;;;21.50;;
63012;SDS011;62113;45.624;11.700;2023-12-22T07:30:45;42.47;;;21.75;;
63012;SDS011;62113;45.624;11.700;2023-12-22T07:33:11;38.78;;;21.23;;
63012;SDS011;62113;45.624;11.700;2023-12-22T07:35:37;42.05;;;20.95;;
63012;SDS011;62113;45.624;11.700;2023-12-22T07:38:02;45.20;;;21.73;;
63012;SDS011;62113;45.624;11.700;2023-12-22T07:40:28;61.30;;;31.75;;
63012;SDS011;62113;45.624;11.700;2023-12-22T07:45:21;39.87;;;22.27;;
63012;SDS011;62113;45.624;11.700;2023-12-22T07:47:46;43.55;;;24.23;;
63012;SDS011;62113;45.624;11.700;2023-12-22T07:50:12;51.08;;;23.80;;
63012;SDS011;62113;45.624;11.700;2023-12-22T07:52:38;43.13;;;22.67;;
63012;SDS011;62113;45.624;11.700;2023-12-22T07:55:07;42.38;;;24.45;;
63012;SDS011;62113;45.624;11.700;2023-12-22T07:57:36;46.50;;;23.55;;
63012;SDS011;62113;45.624;11.700;2023-12-22T08:00:04;73.70;;;39.28;;
63012;SDS011;62113;45.624;11.700;2023-12-22T08:04:55;40.90;;;23.00;;
63012;SDS011;62113;45.624;11.700;2023-12-22T08:07:22;47.17;;;23.00;;
63012;SDS011;62113;45.624;11.700;2023-12-22T08:09:47;41.05;;;24.08;;
63012;SDS011;62113;45.624;11.700;2023-12-22T08:12:13;35.58;;;21.73;;
63012;SDS011;62113;45.624;11.700;2023-12-22T08:14:38;39.63;;;21.35;;
63012;SDS011;62113;45.624;11.700;2023-12-22T08:17:04;40.00;;;20.77;;
63012;SDS011;62113;45.624;11.700;2023-12-22T08:19:30;30.95;;;18.23;;
63012;SDS011;62113;45.624;11.700;2023-12-22T08:21:55;29.10;;;17.92;;
63012;SDS011;62113;45.624;11.700;2023-12-22T08:24:21;30.08;;;18.23;;
63012;SDS011;62113;45.624;11.700;2023-12-22T08:26:47;40.97;;;21.17;;
63012;SDS011;62113;45.624;11.700;2023-12-22T08:29:13;42.65;;;21.20;;
63012;SDS011;62113;45.624;11.700;2023-12-22T08:31:39;35.22;;;18.42;;
63012;SDS011;62113;45.624;11.700;2023-12-22T08:34:04;31.83;;;19.15;;
63012;SDS011;62113;45.624;11.700;2023-12-22T08:36:30;35.72;;;18.20;;
63012;SDS011;62113;45.624;11.700;2023-12-22T08:38:57;34.30;;;19.02;;
63012;SDS011;62113;45.624;11.700;2023-12-22T08:41:22;26.60;;;17.83;;
63012;SDS011;62113;45.624;11.700;2023-12-22T08:43:48;36.58;;;17.25;;
63012;SDS011;62113;45.624;11.700;2023-12-22T08:46:14;29.30;;;16.75;;
63012;SDS011;62113;45.624;11.700;2023-12-22T08:48:40;22.80;;;15.13;;
63012;SDS011;62113;45.624;11.700;2023-12-22T08:51:05;24.73;;;16.23;;
63012;SDS011;62113;45.624;11.700;2023-12-22T08:53:32;36.60;;;16.00;;
63012;SDS011;62113;45.624;11.700;2023-12-22T08:56:01;27.10;;;16.55;;
63012;SDS011;62113;45.624;11.700;2023-12-22T08:58:27;25.25;;;16.67;;
63012;SDS011;62113;45.624;11.700;2023-12-22T09:00:53;25.40;;;15.75;;
63012;SDS011;62113;45.624;11.700;2023-12-22T09:03:19;27.73;;;15.25;;
63012;SDS011;62113;45.624;11.700;2023-12-22T09:05:45;27.77;;;15.70;;
63012;SDS011;62113;45.624;11.700;2023-12-22T09:10:37;32.33;;;15.00;;
63012;SDS011;62113;45.624;11.700;2023-12-22T09:13:03;27.30;;;16.02;;
63012;SDS011;62113;45.624;11.700;2023-12-22T09:15:29;30.17;;;16.17;;
63012;SDS011;62113;45.624;11.700;2023-12-22T09:17:54;28.20;;;16.15;;
63012;SDS011;62113;45.624;11.700;2023-12-22T09:20:21;28.77;;;14.45;;
63012;SDS011;62113;45.624;11.700;2023-12-22T09:22:46;29.00;;;15.27;;
63012;SDS011;62113;45.624;11.700;2023-12-22T09:25:12;28.92;;;15.93;;
63012;SDS011;62113;45.624;11.700;2023-12-22T09:27:38;33.42;;;15.65;;
63012;SDS011;62113;45.624;11.700;2023-12-22T09:30:04;25.95;;;15.05;;
63012;SDS011;62113;45.624;11.700;2023-12-22T09:32:32;23.27;;;14.93;;
63012;SDS011;62113;45.624;11.700;2023-12-22T09:34:59;33.10;;;15.60;;
63012;SDS011;62113;45.624;11.700;2023-12-22T09:37:25;24.25;;;15.35;;
63012;SDS011;62113;45.624;11.700;2023-12-22T09:39:51;21.07;;;14.23;;
63012;SDS011;62113;45.624;11.700;2023-12-22T09:42:17;21.90;;;14.73;;
63012;SDS011;62113;45.624;11.700;2023-12-22T09:44:44;22.58;;;14.40;;
63012;SDS011;62113;45.624;11.700;2023-12-22T09:47:11;18.20;;;12.88;;
63012;SDS011;62113;45.624;11.700;2023-12-22T09:52:04;20.08;;;13.20;;
63012;SDS011;62113;45.624;11.700;2023-12-22T09:54:32;20.67;;;13.88;;
63012;SDS011;62113;45.624;11.700;2023-12-22T09:56:59;23.93;;;14.77;;
63012;SDS011;62113;45.624;11.700;2023-12-22T09:59:25;22.30;;;13.55;;
63012;SDS011;62113;45.624;11.700;2023-12-22T10:01:53;23.60;;;14.90;;
63012;SDS011;62113;45.624;11.700;2023-12-22T10:04:20;25.20;;;14.30;;
63012;SDS011;62113;45.624;11.700;2023-12-22T10:06:47;20.67;;;13.97;;
63012;SDS011;62113;45.624;11.700;2023-12-22T10:09:13;23.63;;;15.18;;
63012;SDS011;62113;45.624;11.700;2023-12-22T10:11:41;33.10;;;22.15;;
63012;SDS011;62113;45.624;11.700;2023-12-22T10:14:09;25.13;;;16.08;;
63012;SDS011;62113;45.624;11.700;2023-12-22T10:16:38;33.00;;;19.43;;
63012;SDS011;62113;45.624;11.700;2023-12-22T10:19:04;25.55;;;16.25;;
63012;SDS011;62113;45.624;11.700;2023-12-22T10:21:31;18.60;;;15.57;;
63012;SDS011;62113;45.624;11.700;2023-12-22T10:23:57;19.37;;;14.43;;
63012;SDS011;62113;45.624;11.700;2023-12-22T10:26:23;19.93;;;15.27;;
63012;SDS011;62113;45.624;11.700;2023-12-22T10:28:48;23.80;;;15.83;;
63012;SDS011;62113;45.624;11.700;2023-12-22T10:31:14;25.88;;;16.08;;
63012;SDS011;62113;45.624;11.700;2023-12-22T10:33:42;25.50;;;14.50;;
63012;SDS011;62113;45.624;11.700;2023-12-22T10:36:08;23.63;;;15.07;;
63012;SDS011;62113;45.624;11.700;2023-12-22T10:38:34;20.70;;;15.27;;
63012;SDS011;62113;45.624;11.700;2023-12-22T10:41:01;23.33;;;15.50;;
63012;SDS011;62113;45.624;11.700;2023-12-22T10:43:27;27.10;;;16.90;;
63012;SDS011;62113;45.624;11.700;2023-12-22T10:45:54;29.17;;;17.30;;
63012;SDS011;62113;45.624;11.700;2023-12-22T10:48:20;25.57;;;16.43;;
63012;SDS011;62113;45.624;11.700;2023-12-22T10:50:46;27.33;;;16.27;;
63012;SDS011;62113;45.624;11.700;2023-12-22T10:53:12;26.70;;;18.08;;
63012;SDS011;62113;45.624;11.700;2023-12-22T10:55:38;31.37;;;16.37;;
63012;SDS011;62113;45.624;11.700;2023-12-22T10:58:03;25.67;;;16.73;;
63012;SDS011;62113;45.624;11.700;2023-12-22T11:00:30;26.42;;;16.73;;
63012;SDS011;62113;45.624;11.700;2023-12-22T11:03:01;30.15;;;16.45;;
63012;SDS011;62113;45.624;11.700;2023-12-22T11:05:29;30.73;;;16.42;;
63012;SDS011;62113;45.624;11.700;2023-12-22T11:07:57;26.15;;;17.08;;
63012;SDS011;62113;45.624;11.700;2023-12-22T11:10:27;26.70;;;16.67;;
63012;SDS011;62113;45.624;11.700;2023-12-22T11:12:55;24.92;;;16.30;;
63012;SDS011;62113;45.624;11.700;2023-12-22T11:17:48;28.30;;;16.48;;
63012;SDS011;62113;45.624;11.700;2023-12-22T11:20:16;30.85;;;17.25;;
63012;SDS011;62113;45.624;11.700;2023-12-22T11:22:43;26.00;;;16.42;;
63012;SDS011;62113;45.624;11.700;2023-12-22T11:25:10;28.33;;;16.67;;
63012;SDS011;62113;45.624;11.700;2023-12-22T11:27:36;24.83;;;16.50;;
63012;SDS011;62113;45.624;11.700;2023-12-22T11:30:02;22.13;;;15.65;;
63012;SDS011;62113;45.624;11.700;2023-12-22T11:32:33;28.23;;;16.70;;
63012;SDS011;62113;45.624;11.700;2023-12-22T11:34:59;29.35;;;17.33;;
63012;SDS011;62113;45.624;11.700;2023-12-22T11:37:25;27.93;;;17.03;;
63012;SDS011;62113;45.624;11.700;2023-12-22T11:39:51;28.10;;;16.13;;
63012;SDS011;62113;45.624;11.700;2023-12-22T11:42:24;35.08;;;16.83;;
63012;SDS011;62113;45.624;11.700;2023-12-22T11:44:53;26.75;;;17.45;;
63012;SDS011;62113;45.624;11.700;2023-12-22T11:47:22;26.10;;;16.55;;
63012;SDS011;62113;45.624;11.700;2023-12-22T11:49:48;30.88;;;17.10;;
63012;SDS011;62113;45.624;11.700;2023-12-22T11:52:17;25.73;;;16.20;;
63012;SDS011;62113;45.624;11.700;2023-12-22T11:54:50;25.25;;;16.27;;
63012;SDS011;62113;45.624;11.700;2023-12-22T11:57:29;23.13;;;15.98;;
63012;SDS011;62113;45.624;11.700;2023-12-22T11:59:56;29.70;;;16.25;;
63012;SDS011;62113;45.624;11.700;2023-12-22T12:02:36;30.20;;;17.65;;
63012;SDS011;62113;45.624;11.700;2023-12-22T12:05:06;25.67;;;17.27;;
63012;SDS011;62113;45.624;11.700;2023-12-22T12:10:06;24.50;;;17.13;;
63012;SDS011;62113;45.624;11.700;2023-12-22T12:12:33;29.23;;;16.92;;
63012;SDS011;62113;45.624;11.700;2023-12-22T12:15:05;26.30;;;17.07;;
63012;SDS011;62113;45.624;11.700;2023-12-22T12:17:33;23.83;;;16.40;;
63012;SDS011;62113;45.624;11.700;2023-12-22T12:20:02;26.42;;;17.15;;
63012;SDS011;62113;45.624;11.700;2023-12-22T12:22:30;24.52;;;15.55;;
63012;SDS011;62113;45.624;11.700;2023-12-22T12:24:56;28.07;;;16.90;;
63012;SDS011;62113;45.624;11.700;2023-12-22T12:27:22;27.60;;;16.90;;
63012;SDS011;62113;45.624;11.700;2023-12-22T12:29:47;27.10;;;15.97;;
63012;SDS011;62113;45.624;11.700;2023-12-22T12:32:14;22.92;;;15.35;;
63012;SDS011;62113;45.624;11.700;2023-12-22T12:34:43;30.67;;;16.33;;
63012;SDS011;62113;45.624;11.700;2023-12-22T12:37:08;24.38;;;17.20;;
63012;SDS011;62113;45.624;11.700;2023-12-22T12:39:35;26.67;;;17.17;;
63012;SDS011;62113;45.624;11.700;2023-12-22T12:42:01;30.17;;;19.05;;
63012;SDS011;62113;45.624;11.700;2023-12-22T12:44:27;26.50;;;17.55;;
63012;SDS011;62113;45.624;11.700;2023-12-22T12:46:57;27.25;;;18.13;;
63012;SDS011;62113;45.624;11.700;2023-12-22T12:49:23;27.40;;;18.00;;
63012;SDS011;62113;45.624;11.700;2023-12-22T12:51:52;29.83;;;17.98;;
63012;SDS011;62113;45.624;11.700;2023-12-22T12:54:18;33.40;;;17.63;;
63012;SDS011;62113;45.624;11.700;2023-12-22T12:56:44;79.23;;;40.07;;
63012;SDS011;62113;45.624;11.700;2023-12-22T12:59:11;41.55;;;21.52;;
63012;SDS011;62113;45.624;11.700;2023-12-22T13:01:42;33.30;;;18.55;;
63012;SDS011;62113;45.624;11.700;2023-12-22T13:04:09;31.83;;;17.58;;
63012;SDS011;62113;45.624;11.700;2023-12-22T13:06:42;32.10;;;18.25;;
63012;SDS011;62113;45.624;11.700;2023-12-22T13:09:08;28.20;;;18.10;;
63012;SDS011;62113;45.624;11.700;2023-12-22T13:11:34;30.70;;;18.57;;
63012;SDS011;62113;45.624;11.700;2023-12-22T13:14:01;27.08;;;18.17;;
63012;SDS011;62113;45.624;11.700;2023-12-22T13:16:27;30.60;;;17.33;;
63012;SDS011;62113;45.624;11.700;2023-12-22T13:18:56;28.95;;;17.35;;
63012;SDS011;62113;45.624;11.700;2023-12-22T13:21:23;29.05;;;17.50;;
63012;SDS011;62113;45.624;11.700;2023-12-22T13:24:10;31.17;;;19.08;;
63012;SDS011;62113;45.624;11.700;2023-12-22T13:26:39;29.27;;;17.77;;
63012;SDS011;62113;45.624;11.700;2023-12-22T13:29:08;28.70;;;17.35;;
63012;SDS011;62113;45.624;11.700;2023-12-22T13:31:38;26.67;;;18.50;;
63012;SDS011;62113;45.624;11.700;2023-12-22T13:34:09;30.83;;;18.00;;
63012;SDS011;62113;45.624;11.700;2023-12-22T13:36:35;35.03;;;18.45;;
63012;SDS011;62113;45.624;11.700;2023-12-22T13:39:02;24.80;;;17.92;;
63012;SDS011;62113;45.624;11.700;2023-12-22T13:41:31;32.95;;;18.77;;
63012;SDS011;62113;45.624;11.700;2023-12-22T13:44:10;28.30;;;18.38;;
63012;SDS011;62113;45.624;11.700;2023-12-22T13:46:36;29.75;;;18.80;;
63012;SDS011;62113;45.624;11.700;2023-12-22T13:49:05;26.48;;;18.50;;
63012;SDS011;62113;45.624;11.700;2023-12-22T13:51:42;33.90;;;20.83;;
63012;SDS011;62113;45.624;11.700;2023-12-22T13:54:09;36.80;;;20.27;;
63012;SDS011;62113;45.624;11.700;2023-12-22T13:56:36;32.75;;;18.95;;
63012;SDS011;62113;45.624;11.700;2023-12-22T13:59:02;37.38;;;20.25;;
63012;SDS011;62113;45.624;11.700;2023-12-22T14:01:29;27.77;;;19.73;;
63012;SDS011;62113;45.624;11.700;2023-12-22T14:03:55;36.77;;;23.20;;
63012;SDS011;62113;45.624;11.700;2023-12-22T14:06:23;34.35;;;20.92;;
63012;SDS011;62113;45.624;11.700;2023-12-22T14:11:15;33.27;;;20.03;;
63012;SDS011;62113;45.624;11.700;2023-12-22T14:13:40;28.67;;;19.92;;
63012;SDS011;62113;45.624;11.700;2023-12-22T14:16:06;34.50;;;22.27;;
63012;SDS011;62113;45.624;11.700;2023-12-22T14:18:32;29.35;;;20.55;;
63012;SDS011;62113;45.624;11.700;2023-12-22T14:20:58;28.27;;;19.42;;
63012;SDS011;62113;45.624;11.700;2023-12-22T14:23:24;28.95;;;19.40;;
63012;SDS011;62113;45.624;11.700;2023-12-22T14:25:50;34.60;;;20.10;;
63012;SDS011;62113;45.624;11.700;2023-12-22T14:28:15;35.47;;;20.40;;
63012;SDS011;62113;45.624;11.700;2023-12-22T14:30:41;27.23;;;19.15;;
63012;SDS011;62113;45.624;11.700;2023-12-22T14:33:07;36.63;;;21.70;;